sensor_id;sensor_type;location;lat;lon;timestamp;temperature;humidity
26691;DHT22;14307;51.718;8.938;2023-03-01T00:01:37;-3.00;99.90
26691;DHT22;14307;51.718;8.938;2023-03-01T00:04:04;-3.10;99.90
26691;DHT22;14307;51.718;8.938;2023-03-01T00:06:31;-3.20;99.90
26691;DHT22;14307;51.718;8.938;2023-03-01T00:08:58;-3.30;99.90
26691;DHT22;14307;51.718;8.938;2023-03-01T00:11:28;-3.40;99.90
26691;DHT22;14307;51.718;8.938;2023-03-01T00:13:57;-3.40;99.90
26691;DHT22;14307;51.718;8.938;2023-03-01T00:16:47;-3.50;99.90
26691;DHT22;14307;51.718;8.938;2023-03-01T00:19:16;-3.50;99.90
26691;DHT22;14307;51.718;8.938;2023-03-01T00:21:43;-3.30;99.90
26691;DHT22;14307;51.718;8.938;2023-03-01T00:24:10;-3.10;99.90
26691;DHT22;14307;51.718;8.938;2023-03-01T00:26:37;-2.80;99.90
26691;DHT22;14307;51.718;8.938;2023-03-01T00:29:04;-2.60;99.90
26691;DHT22;14307;51.718;8.938;2023-03-01T00:31:32;-2.50;99.90
26691;DHT22;14307;51.718;8.938;2023-03-01T00:34:02;-2.40;99.90
26691;DHT22;14307;51.718;8.938;2023-03-01T00:36:33;-2.50;99.90
26691;DHT22;14307;51.718;8.938;2023-03-01T00:39:00;-2.70;99.90
26691;DHT22;14307;51.718;8.938;2023-03-01T00:41:27;-2.90;99.90
26691;DHT22;14307;51.718;8.938;2023-03-01T00:43:54;-3.10;99.90
26691;DHT22;14307;51.718;8.938;2023-03-01T00:46:24;-3.30;99.90
26691;DHT22;14307;51.718;8.938;2023-03-01T00:48:51;-3.50;99.90
26691;DHT22;14307;51.718;8.938;2023-03-01T00:51:19;-3.70;99.90
26691;DHT22;14307;51.718;8.938;2023-03-01T00:53:47;-3.60;99.90
26691;DHT22;14307;51.718;8.938;2023-03-01T00:56:16;-3.40;99.90
26691;DHT22;14307;51.718;8.938;2023-03-01T00:58:43;-3.30;99.90
26691;DHT22;14307;51.718;8.938;2023-03-01T01:01:16;-3.10;99.90
26691;DHT22;14307;51.718;8.938;2023-03-01T01:03:46;-3.00;99.90
26691;DHT22;14307;51.718;8.938;2023-03-01T01:06:21;-3.10;99.90
26691;DHT22;14307;51.718;8.938;2023-03-01T01:08:49;-3.20;99.90
26691;DHT22;14307;51.718;8.938;2023-03-01T01:11:16;-3.20;99.90
26691;DHT22;14307;51.718;8.938;2023-03-01T01:13:45;-3.40;99.90
26691;DHT22;14307;51.718;8.938;2023-03-01T01:16:12;-3.60;99.90
26691;DHT22;14307;51.718;8.938;2023-03-01T01:18:39;-3.70;99.90
26691;DHT22;14307;51.718;8.938;2023-03-01T01:21:10;-3.90;99.90
26691;DHT22;14307;51.718;8.938;2023-03-01T01:23:39;-4.00;99.90
26691;DHT22;14307;51.718;8.938;2023-03-01T01:26:09;-4.10;99.90
26691;DHT22;14307;51.718;8.938;2023-03-01T01:28:36;-4.20;99.90
26691;DHT22;14307;51.718;8.938;2023-03-01T01:31:04;-4.20;99.90
26691;DHT22;14307;51.718;8.938;2023-03-01T01:33:31;-4.30;99.90
26691;DHT22;14307;51.718;8.938;2023-03-01T01:35:58;-4.30;99.90
26691;DHT22;14307;51.718;8.938;2023-03-01T01:38:24;-4.40;99.90
26691;DHT22;14307;51.718;8.938;2023-03-01T01:40:51;-4.40;99.90
26691;DHT22;14307;51.718;8.938;2023-03-01T01:43:31;-4.50;99.90
26691;DHT22;14307;51.718;8.938;2023-03-01T01:46:04;-4.60;99.90
26691;DHT22;14307;51.718;8.938;2023-03-01T01:48:45;-4.60;99.90
26691;DHT22;14307;51.718;8.938;2023-03-01T01:51:18;-4.40;99.90
26691;DHT22;14307;51.718;8.938;2023-03-01T01:53:49;-4.30;99.90
26691;DHT22;14307;51.718;8.938;2023-03-01T01:56:17;-4.30;99.90
26691;DHT22;14307;51.718;8.938;2023-03-01T01:58:45;-4.30;99.90
26691;DHT22;14307;51.718;8.938;2023-03-01T02:01:13;-4.30;99.90
26691;DHT22;14307;51.718;8.938;2023-03-01T02:03:43;-4.40;99.90
26691;DHT22;14307;51.718;8.938;2023-03-01T02:08:48;-4.60;99.90
26691;DHT22;14307;51.718;8.938;2023-03-01T02:11:17;-4.50;99.90
26691;DHT22;14307;51.718;8.938;2023-03-01T02:13:48;-4.60;99.90
26691;DHT22;14307;51.718;8.938;2023-03-01T02:16:16;-4.80;99.90
26691;DHT22;14307;51.718;8.938;2023-03-01T02:18:43;-4.80;99.90
26691;DHT22;14307;51.718;8.938;2023-03-01T02:23:59;-4.90;99.90
26691;DHT22;14307;51.718;8.938;2023-03-01T02:26:29;-4.90;99.90
26691;DHT22;14307;51.718;8.938;2023-03-01T02:29:00;-5.00;99.90
26691;DHT22;14307;51.718;8.938;2023-03-01T02:31:26;-5.00;99.90
26691;DHT22;14307;51.718;8.938;2023-03-01T02:34:17;-4.90;99.90
26691;DHT22;14307;51.718;8.938;2023-03-01T02:39:36;-4.40;99.90
26691;DHT22;14307;51.718;8.938;2023-03-01T02:42:12;-3.90;99.90
26691;DHT22;14307;51.718;8.938;2023-03-01T02:44:39;-3.50;99.90
26691;DHT22;14307;51.718;8.938;2023-03-01T02:47:06;-3.80;99.90
26691;DHT22;14307;51.718;8.938;2023-03-01T02:49:35;-4.00;99.90
26691;DHT22;14307;51.718;8.938;2023-03-01T02:52:24;-4.20;99.90
26691;DHT22;14307;51.718;8.938;2023-03-01T02:55:08;-4.40;99.90
26691;DHT22;14307;51.718;8.938;2023-03-01T02:57:38;-4.40;99.90
26691;DHT22;14307;51.718;8.938;2023-03-01T03:00:15;-4.30;99.90
26691;DHT22;14307;51.718;8.938;2023-03-01T03:02:48;-4.10;99.90
26691;DHT22;14307;51.718;8.938;2023-03-01T03:05:21;-3.80;99.90
26691;DHT22;14307;51.718;8.938;2023-03-01T03:07:52;-4.00;99.90
26691;DHT22;14307;51.718;8.938;2023-03-01T03:10:40;-4.10;99.90
26691;DHT22;14307;51.718;8.938;2023-03-01T03:13:10;-4.30;99.90
26691;DHT22;14307;51.718;8.938;2023-03-01T03:15:38;-4.60;99.90
26691;DHT22;14307;51.718;8.938;2023-03-01T03:18:09;-4.80;99.90
26691;DHT22;14307;51.718;8.938;2023-03-01T03:20:36;-4.80;99.90
26691;DHT22;14307;51.718;8.938;2023-03-01T03:23:04;-4.90;99.90
26691;DHT22;14307;51.718;8.938;2023-03-01T03:25:30;-5.00;99.90
26691;DHT22;14307;51.718;8.938;2023-03-01T03:27:58;-5.00;99.90
26691;DHT22;14307;51.718;8.938;2023-03-01T03:30:28;-4.90;99.90
26691;DHT22;14307;51.718;8.938;2023-03-01T03:32:56;-5.00;99.90
26691;DHT22;14307;51.718;8.938;2023-03-01T03:35:40;-5.00;99.90
26691;DHT22;14307;51.718;8.938;2023-03-01T03:38:10;-5.00;99.90
26691;DHT22;14307;51.718;8.938;2023-03-01T03:40:48;-5.10;99.90
26691;DHT22;14307;51.718;8.938;2023-03-01T03:43:17;-5.20;99.90
26691;DHT22;14307;51.718;8.938;2023-03-01T03:45:45;-5.10;99.90
26691;DHT22;14307;51.718;8.938;2023-03-01T03:48:13;-5.20;99.90
26691;DHT22;14307;51.718;8.938;2023-03-01T03:50:40;-5.20;99.90
26691;DHT22;14307;51.718;8.938;2023-03-01T03:53:09;-5.30;99.90
26691;DHT22;14307;51.718;8.938;2023-03-01T03:55:37;-5.30;99.90
26691;DHT22;14307;51.718;8.938;2023-03-01T03:58:07;-5.30;99.90
26691;DHT22;14307;51.718;8.938;2023-03-01T04:00:40;-5.40;99.90
26691;DHT22;14307;51.718;8.938;2023-03-01T04:03:08;-5.40;99.90
26691;DHT22;14307;51.718;8.938;2023-03-01T04:05:36;-5.30;99.90
26691;DHT22;14307;51.718;8.938;2023-03-01T04:08:03;-5.30;99.90
26691;DHT22;14307;51.718;8.938;2023-03-01T04:10:36;-5.30;99.90
26691;DHT22;14307;51.718;8.938;2023-03-01T04:13:04;-5.10;99.90
26691;DHT22;14307;51.718;8.938;2023-03-01T04:15:32;-4.70;99.90
26691;DHT22;14307;51.718;8.938;2023-03-01T04:17:59;-4.10;99.90
26691;DHT22;14307;51.718;8.938;2023-03-01T04:20:28;-3.80;99.90
26691;DHT22;14307;51.718;8.938;2023-03-01T04:23:07;-4.00;99.90
26691;DHT22;14307;51.718;8.938;2023-03-01T04:25:59;-4.10;99.90
26691;DHT22;14307;51.718;8.938;2023-03-01T04:28:33;-4.00;99.90
26691;DHT22;14307;51.718;8.938;2023-03-01T04:31:08;-3.80;99.90
26691;DHT22;14307;51.718;8.938;2023-03-01T04:33:45;-3.90;99.90
26691;DHT22;14307;51.718;8.938;2023-03-01T04:36:15;-3.80;99.90
26691;DHT22;14307;51.718;8.938;2023-03-01T04:38:42;-3.90;99.90
26691;DHT22;14307;51.718;8.938;2023-03-01T04:41:16;-4.00;99.90
26691;DHT22;14307;51.718;8.938;2023-03-01T04:43:44;-4.20;99.90
26691;DHT22;14307;51.718;8.938;2023-03-01T04:46:12;-4.30;99.90
26691;DHT22;14307;51.718;8.938;2023-03-01T04:48:42;-4.30;99.90
26691;DHT22;14307;51.718;8.938;2023-03-01T04:51:10;-4.50;99.90
26691;DHT22;14307;51.718;8.938;2023-03-01T04:53:40;-4.70;99.90
26691;DHT22;14307;51.718;8.938;2023-03-01T04:56:07;-4.80;99.90
26691;DHT22;14307;51.718;8.938;2023-03-01T04:58:34;-5.00;99.90
26691;DHT22;14307;51.718;8.938;2023-03-01T05:01:01;-5.10;99.90
26691;DHT22;14307;51.718;8.938;2023-03-01T05:03:51;-5.20;99.90
26691;DHT22;14307;51.718;8.938;2023-03-01T05:06:19;-5.00;99.90
26691;DHT22;14307;51.718;8.938;2023-03-01T05:08:46;-4.80;99.90
26691;DHT22;14307;51.718;8.938;2023-03-01T05:11:12;-5.00;99.90
26691;DHT22;14307;51.718;8.938;2023-03-01T05:13:39;-5.00;99.90
26691;DHT22;14307;51.718;8.938;2023-03-01T05:16:07;-4.60;99.90
26691;DHT22;14307;51.718;8.938;2023-03-01T05:18:37;-4.10;99.90
26691;DHT22;14307;51.718;8.938;2023-03-01T05:21:13;-3.80;99.90
26691;DHT22;14307;51.718;8.938;2023-03-01T05:23:42;-3.50;99.90
26691;DHT22;14307;51.718;8.938;2023-03-01T05:26:09;-3.50;99.90
26691;DHT22;14307;51.718;8.938;2023-03-01T05:28:51;-3.50;99.90
26691;DHT22;14307;51.718;8.938;2023-03-01T05:31:18;-3.40;99.90
26691;DHT22;14307;51.718;8.938;2023-03-01T05:33:45;-3.50;99.90
26691;DHT22;14307;51.718;8.938;2023-03-01T05:36:12;-3.50;99.90
26691;DHT22;14307;51.718;8.938;2023-03-01T05:38:38;-3.50;99.90
26691;DHT22;14307;51.718;8.938;2023-03-01T05:41:05;-3.50;99.90
26691;DHT22;14307;51.718;8.938;2023-03-01T05:43:39;-3.50;99.90
26691;DHT22;14307;51.718;8.938;2023-03-01T05:46:09;-3.50;99.90
26691;DHT22;14307;51.718;8.938;2023-03-01T05:48:38;-3.50;99.90
26691;DHT22;14307;51.718;8.938;2023-03-01T05:51:05;-3.60;99.90
26691;DHT22;14307;51.718;8.938;2023-03-01T05:53:32;-3.60;99.90
26691;DHT22;14307;51.718;8.938;2023-03-01T05:55:59;-3.60;99.90
26691;DHT22;14307;51.718;8.938;2023-03-01T05:58:26;-3.60;99.90
26691;DHT22;14307;51.718;8.938;2023-03-01T06:00:54;-3.50;99.90
26691;DHT22;14307;51.718;8.938;2023-03-01T06:03:22;-3.50;99.90
26691;DHT22;14307;51.718;8.938;2023-03-01T06:05:49;-3.50;99.90
26691;DHT22;14307;51.718;8.938;2023-03-01T06:08:16;-3.50;99.90
26691;DHT22;14307;51.718;8.938;2023-03-01T06:10:43;-3.50;99.90
26691;DHT22;14307;51.718;8.938;2023-03-01T06:13:09;-3.50;99.90
26691;DHT22;14307;51.718;8.938;2023-03-01T06:15:36;-3.50;99.90
26691;DHT22;14307;51.718;8.938;2023-03-01T06:18:03;-3.50;99.90
26691;DHT22;14307;51.718;8.938;2023-03-01T06:20:30;-3.60;99.90
26691;DHT22;14307;51.718;8.938;2023-03-01T06:22:57;-3.70;99.90
26691;DHT22;14307;51.718;8.938;2023-03-01T06:25:26;-3.70;99.90
26691;DHT22;14307;51.718;8.938;2023-03-01T06:27:53;-3.70;99.90
26691;DHT22;14307;51.718;8.938;2023-03-01T06:30:22;-3.70;99.90
26691;DHT22;14307;51.718;8.938;2023-03-01T06:32:50;-3.80;99.90
26691;DHT22;14307;51.718;8.938;2023-03-01T06:35:18;-3.80;99.90
26691;DHT22;14307;51.718;8.938;2023-03-01T06:37:46;-3.70;99.90
26691;DHT22;14307;51.718;8.938;2023-03-01T06:40:14;-3.60;99.90
26691;DHT22;14307;51.718;8.938;2023-03-01T06:42:43;-3.40;99.90
26691;DHT22;14307;51.718;8.938;2023-03-01T06:45:11;-3.30;99.90
26691;DHT22;14307;51.718;8.938;2023-03-01T06:47:38;-3.30;99.90
26691;DHT22;14307;51.718;8.938;2023-03-01T06:50:05;-3.40;99.90
26691;DHT22;14307;51.718;8.938;2023-03-01T06:52:32;-3.50;99.90
26691;DHT22;14307;51.718;8.938;2023-03-01T06:54:59;-3.40;99.90
26691;DHT22;14307;51.718;8.938;2023-03-01T06:57:26;-3.30;99.90
26691;DHT22;14307;51.718;8.938;2023-03-01T06:59:53;-3.30;99.90
26691;DHT22;14307;51.718;8.938;2023-03-01T07:02:20;-3.10;99.90
26691;DHT22;14307;51.718;8.938;2023-03-01T07:04:51;-3.00;99.90
26691;DHT22;14307;51.718;8.938;2023-03-01T07:07:19;-2.90;99.90
26691;DHT22;14307;51.718;8.938;2023-03-01T07:09:46;-2.90;99.90
26691;DHT22;14307;51.718;8.938;2023-03-01T07:12:14;-2.70;99.90
26691;DHT22;14307;51.718;8.938;2023-03-01T07:14:43;-2.70;99.90
26691;DHT22;14307;51.718;8.938;2023-03-01T07:17:09;-2.60;99.90
26691;DHT22;14307;51.718;8.938;2023-03-01T07:19:36;-2.50;99.90
26691;DHT22;14307;51.718;8.938;2023-03-01T07:22:03;-2.50;99.90
26691;DHT22;14307;51.718;8.938;2023-03-01T07:24:30;-2.30;99.90
26691;DHT22;14307;51.718;8.938;2023-03-01T07:26:57;-2.10;99.90
26691;DHT22;14307;51.718;8.938;2023-03-01T07:29:24;-2.00;99.90
26691;DHT22;14307;51.718;8.938;2023-03-01T07:31:50;-1.80;99.90
26691;DHT22;14307;51.718;8.938;2023-03-01T07:34:17;-1.70;99.90
26691;DHT22;14307;51.718;8.938;2023-03-01T07:36:44;-1.60;99.90
26691;DHT22;14307;51.718;8.938;2023-03-01T07:39:11;-1.40;99.90
26691;DHT22;14307;51.718;8.938;2023-03-01T07:41:38;-1.40;99.90
26691;DHT22;14307;51.718;8.938;2023-03-01T07:44:05;-1.30;99.90
26691;DHT22;14307;51.718;8.938;2023-03-01T07:46:32;-1.40;99.90
26691;DHT22;14307;51.718;8.938;2023-03-01T07:48:59;-1.30;99.90
26691;DHT22;14307;51.718;8.938;2023-03-01T07:51:25;-1.30;99.90
26691;DHT22;14307;51.718;8.938;2023-03-01T07:53:52;-1.20;99.90
26691;DHT22;14307;51.718;8.938;2023-03-01T07:56:19;-1.00;99.90
26691;DHT22;14307;51.718;8.938;2023-03-01T07:58:46;-1.00;99.90
26691;DHT22;14307;51.718;8.938;2023-03-01T08:01:19;-0.80;99.90
26691;DHT22;14307;51.718;8.938;2023-03-01T08:03:46;-0.60;99.90
26691;DHT22;14307;51.718;8.938;2023-03-01T08:06:15;-0.60;99.90
26691;DHT22;14307;51.718;8.938;2023-03-01T08:08:43;-0.50;99.90
26691;DHT22;14307;51.718;8.938;2023-03-01T08:11:12;-0.50;99.90
26691;DHT22;14307;51.718;8.938;2023-03-01T08:13:39;-0.30;99.90
26691;DHT22;14307;51.718;8.938;2023-03-01T08:16:09;-0.30;99.90
26691;DHT22;14307;51.718;8.938;2023-03-01T08:18:37;-0.10;99.90
26691;DHT22;14307;51.718;8.938;2023-03-01T08:21:15;0.00;99.90
26691;DHT22;14307;51.718;8.938;2023-03-01T08:23:42;0.20;99.90
26691;DHT22;14307;51.718;8.938;2023-03-01T08:28:39;0.40;99.90
26691;DHT22;14307;51.718;8.938;2023-03-01T08:31:21;0.80;99.90
26691;DHT22;14307;51.718;8.938;2023-03-01T08:33:50;1.10;99.90
26691;DHT22;14307;51.718;8.938;2023-03-01T08:36:26;1.10;99.90
26691;DHT22;14307;51.718;8.938;2023-03-01T08:38:53;1.20;99.90
26691;DHT22;14307;51.718;8.938;2023-03-01T08:41:20;1.10;99.90
26691;DHT22;14307;51.718;8.938;2023-03-01T08:43:47;1.30;99.90
26691;DHT22;14307;51.718;8.938;2023-03-01T08:46:14;1.30;99.90
26691;DHT22;14307;51.718;8.938;2023-03-01T08:48:41;1.20;99.90
26691;DHT22;14307;51.718;8.938;2023-03-01T08:51:10;1.20;99.90
26691;DHT22;14307;51.718;8.938;2023-03-01T08:53:38;1.30;99.90
26691;DHT22;14307;51.718;8.938;2023-03-01T08:56:05;1.60;99.90
26691;DHT22;14307;51.718;8.938;2023-03-01T08:58:32;1.80;99.90
26691;DHT22;14307;51.718;8.938;2023-03-01T09:00:59;2.20;99.90
26691;DHT22;14307;51.718;8.938;2023-03-01T09:03:27;2.40;99.90
26691;DHT22;14307;51.718;8.938;2023-03-01T09:06:00;2.10;99.90
26691;DHT22;14307;51.718;8.938;2023-03-01T09:08:26;2.00;99.90
26691;DHT22;14307;51.718;8.938;2023-03-01T09:10:53;2.20;99.90
26691;DHT22;14307;51.718;8.938;2023-03-01T09:13:20;2.30;99.90
26691;DHT22;14307;51.718;8.938;2023-03-01T09:15:47;2.40;99.90
26691;DHT22;14307;51.718;8.938;2023-03-01T09:18:13;2.70;99.90
26691;DHT22;14307;51.718;8.938;2023-03-01T09:20:40;3.10;99.90
26691;DHT22;14307;51.718;8.938;2023-03-01T09:23:08;3.10;99.90
26691;DHT22;14307;51.718;8.938;2023-03-01T09:25:35;2.70;99.90
26691;DHT22;14307;51.718;8.938;2023-03-01T09:28:01;2.50;99.90
26691;DHT22;14307;51.718;8.938;2023-03-01T09:30:28;2.60;99.90
26691;DHT22;14307;51.718;8.938;2023-03-01T09:32:56;2.70;99.90
26691;DHT22;14307;51.718;8.938;2023-03-01T09:35:23;2.90;99.90
26691;DHT22;14307;51.718;8.938;2023-03-01T09:37:50;2.80;99.90
26691;DHT22;14307;51.718;8.938;2023-03-01T09:40:21;2.40;99.90
26691;DHT22;14307;51.718;8.938;2023-03-01T09:42:54;2.80;99.90
26691;DHT22;14307;51.718;8.938;2023-03-01T09:45:37;2.80;99.90
26691;DHT22;14307;51.718;8.938;2023-03-01T09:48:17;3.20;99.90
26691;DHT22;14307;51.718;8.938;2023-03-01T09:50:45;3.30;99.90
26691;DHT22;14307;51.718;8.938;2023-03-01T09:53:17;3.70;99.90
26691;DHT22;14307;51.718;8.938;2023-03-01T10:09:39;3.10;99.90
26691;DHT22;14307;51.718;8.938;2023-03-01T10:12:15;2.70;99.90
26691;DHT22;14307;51.718;8.938;2023-03-01T10:20:20;3.80;99.90
26691;DHT22;14307;51.718;8.938;2023-03-01T10:22:48;4.10;99.90
26691;DHT22;14307;51.718;8.938;2023-03-01T10:25:36;3.70;99.90
26691;DHT22;14307;51.718;8.938;2023-03-01T10:28:26;3.40;99.90
26691;DHT22;14307;51.718;8.938;2023-03-01T10:30:58;3.50;99.90
26691;DHT22;14307;51.718;8.938;2023-03-01T10:33:31;3.60;99.90
26691;DHT22;14307;51.718;8.938;2023-03-01T10:35:58;3.40;99.90
26691;DHT22;14307;51.718;8.938;2023-03-01T10:38:25;3.40;99.90
26691;DHT22;14307;51.718;8.938;2023-03-01T10:41:12;3.60;99.90
26691;DHT22;14307;51.718;8.938;2023-03-01T10:43:53;4.10;99.90
26691;DHT22;14307;51.718;8.938;2023-03-01T10:46:31;3.80;99.90
26691;DHT22;14307;51.718;8.938;2023-03-01T10:49:21;3.80;99.90
26691;DHT22;14307;51.718;8.938;2023-03-01T10:51:52;3.70;99.90
26691;DHT22;14307;51.718;8.938;2023-03-01T10:54:28;3.60;99.90
26691;DHT22;14307;51.718;8.938;2023-03-01T10:57:00;3.70;99.90
26691;DHT22;14307;51.718;8.938;2023-03-01T10:59:34;4.20;99.90
26691;DHT22;14307;51.718;8.938;2023-03-01T11:02:28;4.30;99.90
26691;DHT22;14307;51.718;8.938;2023-03-01T11:05:16;4.30;99.90
26691;DHT22;14307;51.718;8.938;2023-03-01T11:10:32;4.50;99.90
26691;DHT22;14307;51.718;8.938;2023-03-01T11:13:17;4.80;99.90
26691;DHT22;14307;51.718;8.938;2023-03-01T11:16:07;5.00;99.90
26691;DHT22;14307;51.718;8.938;2023-03-01T11:18:36;5.10;99.90
26691;DHT22;14307;51.718;8.938;2023-03-01T11:21:15;4.90;99.90
26691;DHT22;14307;51.718;8.938;2023-03-01T11:23:43;4.30;99.90
26691;DHT22;14307;51.718;8.938;2023-03-01T11:26:13;4.20;99.90
26691;DHT22;14307;51.718;8.938;2023-03-01T11:28:42;4.60;99.90
26691;DHT22;14307;51.718;8.938;2023-03-01T11:31:11;5.00;99.90
26691;DHT22;14307;51.718;8.938;2023-03-01T11:33:59;4.70;99.90
26691;DHT22;14307;51.718;8.938;2023-03-01T11:36:52;4.60;99.90
26691;DHT22;14307;51.718;8.938;2023-03-01T11:39:32;4.60;99.90
26691;DHT22;14307;51.718;8.938;2023-03-01T11:42:13;4.70;99.90
26691;DHT22;14307;51.718;8.938;2023-03-01T11:44:47;4.80;99.90
26691;DHT22;14307;51.718;8.938;2023-03-01T11:47:44;5.00;99.90
26691;DHT22;14307;51.718;8.938;2023-03-01T11:55:45;5.10;99.90
26691;DHT22;14307;51.718;8.938;2023-03-01T11:58:43;4.90;99.90
26691;DHT22;14307;51.718;8.938;2023-03-01T12:09:00;4.90;99.90
26691;DHT22;14307;51.718;8.938;2023-03-01T12:25:25;5.40;99.90
26691;DHT22;14307;51.718;8.938;2023-03-01T12:34:23;5.50;99.90
26691;DHT22;14307;51.718;8.938;2023-03-01T12:40:10;5.10;99.90
26691;DHT22;14307;51.718;8.938;2023-03-01T12:51:11;4.90;99.90
26691;DHT22;14307;51.718;8.938;2023-03-01T12:53:48;5.00;99.90
26691;DHT22;14307;51.718;8.938;2023-03-01T12:56:16;5.20;99.90
26691;DHT22;14307;51.718;8.938;2023-03-01T12:59:09;5.30;99.90
26691;DHT22;14307;51.718;8.938;2023-03-01T13:02:01;5.40;99.90
26691;DHT22;14307;51.718;8.938;2023-03-01T13:12:45;5.80;99.90
26691;DHT22;14307;51.718;8.938;2023-03-01T13:18:11;5.30;99.90
26691;DHT22;14307;51.718;8.938;2023-03-01T13:21:00;5.50;99.90
26691;DHT22;14307;51.718;8.938;2023-03-01T13:23:30;5.50;99.90
26691;DHT22;14307;51.718;8.938;2023-03-01T13:26:11;5.40;99.90
26691;DHT22;14307;51.718;8.938;2023-03-01T13:33:47;5.30;99.90
26691;DHT22;14307;51.718;8.938;2023-03-01T13:39:02;5.50;99.90
26691;DHT22;14307;51.718;8.938;2023-03-01T13:44:32;5.50;99.90
26691;DHT22;14307;51.718;8.938;2023-03-01T13:47:13;5.30;99.90
26691;DHT22;14307;51.718;8.938;2023-03-01T13:49:48;5.70;99.90
26691;DHT22;14307;51.718;8.938;2023-03-01T13:54:59;5.80;99.90
26691;DHT22;14307;51.718;8.938;2023-03-01T13:57:33;5.30;99.90
26691;DHT22;14307;51.718;8.938;2023-03-01T14:00:00;5.40;99.90
26691;DHT22;14307;51.718;8.938;2023-03-01T14:02:27;5.60;99.90
26691;DHT22;14307;51.718;8.938;2023-03-01T14:04:58;5.50;99.90
26691;DHT22;14307;51.718;8.938;2023-03-01T14:07:27;5.60;99.90
26691;DHT22;14307;51.718;8.938;2023-03-01T14:10:00;5.70;99.90
26691;DHT22;14307;51.718;8.938;2023-03-01T14:15:31;6.00;99.90
26691;DHT22;14307;51.718;8.938;2023-03-01T14:18:10;5.60;99.90
26691;DHT22;14307;51.718;8.938;2023-03-01T14:20:43;5.50;99.90
26691;DHT22;14307;51.718;8.938;2023-03-01T14:23:17;5.70;99.90
26691;DHT22;14307;51.718;8.938;2023-03-01T14:25:50;5.70;99.90
26691;DHT22;14307;51.718;8.938;2023-03-01T14:28:29;5.80;99.90
26691;DHT22;14307;51.718;8.938;2023-03-01T14:30:58;5.70;99.90
26691;DHT22;14307;51.718;8.938;2023-03-01T14:33:28;5.40;99.90
26691;DHT22;14307;51.718;8.938;2023-03-01T14:36:10;5.60;99.90
26691;DHT22;14307;51.718;8.938;2023-03-01T14:38:39;5.50;99.90
26691;DHT22;14307;51.718;8.938;2023-03-01T14:41:16;5.70;99.90
26691;DHT22;14307;51.718;8.938;2023-03-01T14:43:57;5.70;99.90
26691;DHT22;14307;51.718;8.938;2023-03-01T14:46:38;5.50;99.90
26691;DHT22;14307;51.718;8.938;2023-03-01T14:49:09;5.60;99.90
26691;DHT22;14307;51.718;8.938;2023-03-01T14:51:39;5.60;99.90
26691;DHT22;14307;51.718;8.938;2023-03-01T14:54:23;5.70;99.90
26691;DHT22;14307;51.718;8.938;2023-03-01T14:56:52;5.50;99.90
26691;DHT22;14307;51.718;8.938;2023-03-01T14:59:23;5.40;99.90
26691;DHT22;14307;51.718;8.938;2023-03-01T15:01:52;5.40;99.90
26691;DHT22;14307;51.718;8.938;2023-03-01T15:04:21;5.60;99.90
26691;DHT22;14307;51.718;8.938;2023-03-01T15:06:53;5.50;99.90
26691;DHT22;14307;51.718;8.938;2023-03-01T15:09:22;5.30;99.90
26691;DHT22;14307;51.718;8.938;2023-03-01T15:11:49;5.30;99.90
26691;DHT22;14307;51.718;8.938;2023-03-01T15:14:39;5.30;99.90
26691;DHT22;14307;51.718;8.938;2023-03-01T15:17:36;5.30;99.90
26691;DHT22;14307;51.718;8.938;2023-03-01T15:20:14;5.20;99.90
26691;DHT22;14307;51.718;8.938;2023-03-01T15:22:46;5.20;99.90
26691;DHT22;14307;51.718;8.938;2023-03-01T15:25:16;5.10;99.90
26691;DHT22;14307;51.718;8.938;2023-03-01T15:27:48;5.10;99.90
26691;DHT22;14307;51.718;8.938;2023-03-01T15:30:28;5.10;99.90
26691;DHT22;14307;51.718;8.938;2023-03-01T15:33:18;5.00;99.90
26691;DHT22;14307;51.718;8.938;2023-03-01T15:35:51;5.10;99.90
26691;DHT22;14307;51.718;8.938;2023-03-01T15:38:29;5.00;99.90
26691;DHT22;14307;51.718;8.938;2023-03-01T15:40:59;5.00;99.90
26691;DHT22;14307;51.718;8.938;2023-03-01T15:43:44;5.00;99.90
26691;DHT22;14307;51.718;8.938;2023-03-01T15:51:56;5.00;99.90
26691;DHT22;14307;51.718;8.938;2023-03-01T15:54:25;5.00;99.90
26691;DHT22;14307;51.718;8.938;2023-03-01T15:56:52;4.90;99.90
26691;DHT22;14307;51.718;8.938;2023-03-01T15:59:19;4.80;99.90
26691;DHT22;14307;51.718;8.938;2023-03-01T16:01:48;4.80;99.90
26691;DHT22;14307;51.718;8.938;2023-03-01T16:04:17;4.80;99.90
26691;DHT22;14307;51.718;8.938;2023-03-01T16:06:53;4.80;99.90
26691;DHT22;14307;51.718;8.938;2023-03-01T16:09:24;4.70;99.90
26691;DHT22;14307;51.718;8.938;2023-03-01T16:11:52;4.70;99.90
26691;DHT22;14307;51.718;8.938;2023-03-01T16:14:20;4.60;99.90
26691;DHT22;14307;51.718;8.938;2023-03-01T16:16:47;4.60;99.90
26691;DHT22;14307;51.718;8.938;2023-03-01T16:19:15;4.50;99.90
26691;DHT22;14307;51.718;8.938;2023-03-01T16:21:42;4.50;99.90
26691;DHT22;14307;51.718;8.938;2023-03-01T16:24:10;4.40;99.90
26691;DHT22;14307;51.718;8.938;2023-03-01T16:26:37;4.40;99.90
26691;DHT22;14307;51.718;8.938;2023-03-01T16:29:05;4.40;99.90
26691;DHT22;14307;51.718;8.938;2023-03-01T16:31:32;4.30;99.90
26691;DHT22;14307;51.718;8.938;2023-03-01T16:33:59;4.30;99.90
26691;DHT22;14307;51.718;8.938;2023-03-01T16:36:27;4.30;99.90
26691;DHT22;14307;51.718;8.938;2023-03-01T16:38:55;4.30;99.90
26691;DHT22;14307;51.718;8.938;2023-03-01T16:41:24;4.20;99.90
26691;DHT22;14307;51.718;8.938;2023-03-01T16:43:51;4.20;99.90
26691;DHT22;14307;51.718;8.938;2023-03-01T16:46:21;4.20;99.90
26691;DHT22;14307;51.718;8.938;2023-03-01T16:48:50;4.10;99.90
26691;DHT22;14307;51.718;8.938;2023-03-01T16:51:17;4.10;99.90
26691;DHT22;14307;51.718;8.938;2023-03-01T16:53:44;4.10;99.90
26691;DHT22;14307;51.718;8.938;2023-03-01T16:56:14;4.00;99.90
26691;DHT22;14307;51.718;8.938;2023-03-01T16:58:41;3.90;99.90
26691;DHT22;14307;51.718;8.938;2023-03-01T17:01:19;3.80;99.90
26691;DHT22;14307;51.718;8.938;2023-03-01T17:03:47;3.70;99.90
26691;DHT22;14307;51.718;8.938;2023-03-01T17:06:18;3.60;99.90
26691;DHT22;14307;51.718;8.938;2023-03-01T17:08:46;3.60;99.90
26691;DHT22;14307;51.718;8.938;2023-03-01T17:11:16;3.50;99.90
26691;DHT22;14307;51.718;8.938;2023-03-01T17:13:43;3.50;99.90
26691;DHT22;14307;51.718;8.938;2023-03-01T17:16:13;3.40;99.90
26691;DHT22;14307;51.718;8.938;2023-03-01T17:18:40;3.30;99.90
26691;DHT22;14307;51.718;8.938;2023-03-01T17:21:09;3.20;99.90
26691;DHT22;14307;51.718;8.938;2023-03-01T17:23:38;3.10;99.90
26691;DHT22;14307;51.718;8.938;2023-03-01T17:26:05;3.10;99.90
26691;DHT22;14307;51.718;8.938;2023-03-01T17:28:34;2.90;99.90
26691;DHT22;14307;51.718;8.938;2023-03-01T17:31:02;3.00;99.90
26691;DHT22;14307;51.718;8.938;2023-03-01T17:33:30;3.00;99.90
26691;DHT22;14307;51.718;8.938;2023-03-01T17:35:57;2.90;99.90
26691;DHT22;14307;51.718;8.938;2023-03-01T17:38:26;2.90;99.90
26691;DHT22;14307;51.718;8.938;2023-03-01T17:40:52;2.80;99.90
26691;DHT22;14307;51.718;8.938;2023-03-01T17:43:19;2.70;99.90
26691;DHT22;14307;51.718;8.938;2023-03-01T17:45:46;2.70;99.90
26691;DHT22;14307;51.718;8.938;2023-03-01T17:48:15;2.70;99.90
26691;DHT22;14307;51.718;8.938;2023-03-01T17:50:42;2.70;99.90
26691;DHT22;14307;51.718;8.938;2023-03-01T17:53:09;2.80;99.90